Time;durP1;ratioP1;P1;durP2;ratioP2;P2;SDS_P1;SDS_P2;PMS_P1;PMS_P2;Temp;Humidity;BMP_temperature;BMP_pressure;BME280_temperature;BME280_humidity;BME280_pressure;Samples;Min_cycle;Max_cycle;Signal;HPM_P1;HPM_P2
2022/04/23 00:01:42;;;;;;;11.27;9.23;;;12.10;90.80;;;;;;5053333;28;20461;-61
2022/04/23 00:04:09;;;;;;;14.85;8.40;;;12.10;90.80;;;;;;5053797;28;20036;-61
2022/04/23 00:06:35;;;;;;;11.18;8.45;;;12.00;90.90;;;;;;5053645;28;20032;-61
2022/04/23 00:09:01;;;;;;;14.07;8.98;;;12.00;90.90;;;;;;5054238;28;20048;-61
2022/04/23 00:11:27;;;;;;;11.30;8.40;;;12.00;90.80;;;;;;5053805;28;20466;-61
2022/04/23 00:13:54;;;;;;;13.02;8.43;;;12.00;90.80;;;;;;5053600;28;20033;-61
2022/04/23 00:16:19;;;;;;;8.95;7.63;;;12.00;90.90;;;;;;5053544;28;20037;-60
2022/04/23 00:18:45;;;;;;;8.75;7.35;;;12.00;90.90;;;;;;5053721;28;20032;-61
2022/04/23 00:21:11;;;;;;;9.32;7.65;;;12.00;90.90;;;;;;5053793;28;20031;-61
2022/04/23 00:23:36;;;;;;;9.18;7.90;;;12.00;90.90;;;;;;5053487;28;20116;-61
2022/04/23 00:26:02;;;;;;;9.07;7.22;;;11.90;91.00;;;;;;5053768;28;20013;-62
2022/04/23 00:28:28;;;;;;;10.93;7.63;;;12.00;91.10;;;;;;5053657;28;20020;-61
2022/04/23 00:30:54;;;;;;;9.77;7.95;;;11.90;91.20;;;;;;5053192;28;20104;-61
2022/04/23 00:33:20;;;;;;;11.23;7.88;;;11.90;91.30;;;;;;5053434;28;20064;-61
2022/04/23 00:35:47;;;;;;;11.15;8.55;;;12.00;91.60;;;;;;5053875;28;20112;-67
2022/04/23 00:38:13;;;;;;;10.55;9.13;;;12.00;91.30;;;;;;5053753;28;20033;-61
2022/04/23 00:40:39;;;;;;;13.20;9.07;;;11.90;91.30;;;;;;5053518;28;20108;-61
2022/04/23 00:43:10;;;;;;;9.82;8.07;;;12.00;91.40;;;;;;5052882;28;20028;-62
2022/04/23 00:45:36;;;;;;;14.65;8.30;;;12.00;91.50;;;;;;5052998;28;20025;-61
2022/04/23 00:48:02;;;;;;;12.98;7.53;;;12.00;91.60;;;;;;5052942;28;20025;-61
2022/04/23 00:50:28;;;;;;;10.68;7.63;;;12.00;91.60;;;;;;5053196;28;20096;-60
2022/04/23 00:53:00;;;;;;;11.05;7.63;;;12.00;91.60;;;;;;5053249;28;20573;-61
2022/04/23 00:55:27;;;;;;;11.55;7.90;;;12.00;91.60;;;;;;5052984;28;20028;-61
2022/04/23 00:57:54;;;;;;;8.38;7.45;;;12.00;91.70;;;;;;5051623;28;20025;-62
2022/04/23 01:00:21;;;;;;;11.95;6.82;;;12.00;91.70;;;;;;5050066;28;20079;-61
2022/04/23 01:02:47;;;;;;;13.77;7.13;;;12.00;91.70;;;;;;5050268;28;20024;-61
2022/04/23 01:05:14;;;;;;;9.23;6.85;;;12.00;91.60;;;;;;5051818;28;20393;-61
2022/04/23 01:07:43;;;;;;;10.88;6.72;;;12.00;91.60;;;;;;5052709;28;20603;-61
2022/04/23 01:10:11;;;;;;;15.40;7.00;;;12.00;91.50;;;;;;5052548;28;20033;-61
2022/04/23 01:12:38;;;;;;;8.98;5.90;;;12.00;91.50;;;;;;5052486;28;20024;-61
2022/04/23 01:15:08;;;;;;;8.25;7.05;;;12.00;91.50;;;;;;5052770;28;20025;-61
2022/04/23 01:17:34;;;;;;;8.88;7.28;;;12.00;91.50;;;;;;5052814;28;20029;-61
2022/04/23 01:20:15;;;;;;;12.18;8.15;;;12.00;91.50;;;;;;5052764;28;20561;-60
2022/04/23 01:22:43;;;;;;;8.88;7.68;;;12.00;91.50;;;;;;5052750;28;20029;-61
2022/04/23 01:25:12;;;;;;;18.10;9.40;;;12.00;91.60;;;;;;5052340;28;20037;-61
2022/04/23 01:27:39;;;;;;;14.60;8.98;;;12.00;91.60;;;;;;5052502;28;20021;-61
2022/04/23 01:30:07;;;;;;;15.30;7.82;;;11.90;91.60;;;;;;5052476;28;20032;-61
2022/04/23 01:32:33;;;;;;;13.73;8.35;;;12.00;91.70;;;;;;5052269;28;20027;-61
2022/04/23 01:34:58;;;;;;;10.75;7.70;;;11.90;91.80;;;;;;5052368;28;20396;-62
2022/04/23 01:37:24;;;;;;;8.05;7.03;;;11.90;91.80;;;;;;5052555;28;20037;-60
2022/04/23 01:39:50;;;;;;;9.85;7.75;;;12.00;91.80;;;;;;5052455;28;20025;-61
2022/04/23 01:42:18;;;;;;;10.52;7.57;;;12.00;91.80;;;;;;5052881;28;20043;-61
2022/04/23 01:44:51;;;;;;;9.65;7.50;;;12.00;91.90;;;;;;5056268;28;20112;-61
2022/04/23 01:47:18;;;;;;;9.20;6.90;;;12.00;91.80;;;;;;5056683;28;20383;-61
2022/04/23 01:49:44;;;;;;;9.85;8.10;;;12.00;91.80;;;;;;5056707;28;20493;-60
2022/04/23 01:52:11;;;;;;;14.95;9.70;;;12.00;91.80;;;;;;5056558;28;20048;-61
2022/04/23 01:54:37;;;;;;;12.07;9.65;;;12.00;91.80;;;;;;5056381;28;20443;-61
2022/04/23 01:57:04;;;;;;;12.35;8.98;;;12.00;91.70;;;;;;5056630;28;20024;-61
2022/04/23 01:59:30;;;;;;;14.38;9.48;;;12.00;91.70;;;;;;5056568;28;20044;-61
2022/04/23 02:01:56;;;;;;;10.10;8.85;;;12.00;91.70;;;;;;5056449;28;20092;-62
2022/04/23 02:04:22;;;;;;;9.50;8.55;;;12.00;91.80;;;;;;5056546;28;20454;-61
2022/04/23 02:06:48;;;;;;;9.82;8.82;;;12.00;91.80;;;;;;5056132;28;20060;-61
2022/04/23 02:09:14;;;;;;;11.75;8.93;;;12.00;91.90;;;;;;5056356;28;20086;-61
2022/04/23 02:11:40;;;;;;;11.60;8.90;;;12.00;91.90;;;;;;5056275;28;20175;-61
2022/04/23 02:14:06;;;;;;;13.40;9.00;;;12.00;91.90;;;;;;5055895;28;20525;-61
2022/04/23 02:16:32;;;;;;;10.73;9.32;;;12.00;92.00;;;;;;5056233;28;20083;-61
2022/04/23 02:18:59;;;;;;;10.23;9.13;;;12.00;92.00;;;;;;5056013;28;20029;-61
2022/04/23 02:21:27;;;;;;;9.88;8.35;;;12.00;92.00;;;;;;5056039;28;20025;-61
2022/04/23 02:23:54;;;;;;;9.25;7.63;;;12.00;92.00;;;;;;5056310;28;20025;-61
2022/04/23 02:26:20;;;;;;;10.68;7.38;;;12.00;92.10;;;;;;5055964;28;20029;-61
2022/04/23 02:28:50;;;;;;;8.95;7.47;;;12.00;92.10;;;;;;5055843;28;20033;-61
2022/04/23 02:31:16;;;;;;;8.00;7.15;;;12.00;92.10;;;;;;5055693;28;20032;-61
2022/04/23 02:33:42;;;;;;;11.02;7.60;;;12.00;92.20;;;;;;5055516;28;20048;-61
2022/04/23 02:36:08;;;;;;;10.68;7.38;;;12.00;92.20;;;;;;5055598;28;20020;-61
2022/04/23 02:38:40;;;;;;;6.75;6.03;;;12.00;92.20;;;;;;5055529;28;20024;-61
2022/04/23 02:41:10;;;;;;;7.53;6.15;;;12.00;92.20;;;;;;5055793;28;20029;-61
2022/04/23 02:43:38;;;;;;;11.00;5.63;;;12.00;92.20;;;;;;5055438;28;20083;-61
2022/04/23 02:46:07;;;;;;;7.32;5.50;;;12.00;92.10;;;;;;5055511;28;20039;-61
2022/04/23 02:48:33;;;;;;;7.80;5.28;;;12.00;92.50;;;;;;5055175;28;20033;-61
2022/04/23 02:50:59;;;;;;;5.75;5.22;;;12.10;92.20;;;;;;5055409;28;20501;-61
2022/04/23 02:53:26;;;;;;;7.35;5.10;;;12.10;92.20;;;;;;5055350;28;20037;-61
2022/04/23 02:55:54;;;;;;;6.28;4.70;;;12.00;92.20;;;;;;5055468;28;20041;-61
2022/04/23 02:58:20;;;;;;;6.55;5.10;;;12.10;92.30;;;;;;5055587;28;20398;-61
2022/04/23 03:00:46;;;;;;;8.15;5.57;;;12.00;92.30;;;;;;5055164;28;20098;-61
2022/04/23 03:03:12;;;;;;;10.68;5.82;;;12.10;92.20;;;;;;5055244;28;20087;-61
2022/04/23 03:05:42;;;;;;;6.13;5.53;;;12.10;92.20;;;;;;5054912;28;20390;-61
2022/04/23 03:08:09;;;;;;;5.93;5.32;;;12.10;92.20;;;;;;5055209;28;20025;-61
2022/04/23 03:10:35;;;;;;;6.18;5.57;;;12.00;92.20;;;;;;5055141;28;20426;-61
2022/04/23 03:13:01;;;;;;;7.22;5.57;;;12.10;92.30;;;;;;5055127;28;20108;-61
2022/04/23 03:15:27;;;;;;;6.07;5.30;;;12.10;92.30;;;;;;5055267;28;20036;-61
2022/04/23 03:18:08;;;;;;;8.00;7.07;;;12.10;92.30;;;;;;5054631;28;20029;-60
2022/04/23 03:20:35;;;;;;;10.35;7.60;;;12.00;92.30;;;;;;5054838;28;20393;-61
2022/04/23 03:23:00;;;;;;;9.57;7.22;;;12.00;92.30;;;;;;5054350;28;20063;-61
2022/04/23 03:25:26;;;;;;;9.65;7.43;;;12.00;92.30;;;;;;5054418;28;20021;-61
2022/04/23 03:27:52;;;;;;;10.10;7.32;;;12.00;92.30;;;;;;5054416;28;20025;-62
2022/04/23 03:30:20;;;;;;;10.65;7.75;;;12.00;92.30;;;;;;5054941;28;20040;-61
2022/04/23 03:32:46;;;;;;;9.23;7.22;;;12.00;92.20;;;;;;5054715;28;20120;-61
2022/04/23 03:35:12;;;;;;;8.23;7.30;;;11.90;92.20;;;;;;5054654;28;20108;-61
2022/04/23 03:37:41;;;;;;;9.27;7.43;;;11.90;92.20;;;;;;5054592;28;20170;-61
2022/04/23 03:40:09;;;;;;;9.27;7.45;;;11.90;92.10;;;;;;5054360;28;20017;-61
2022/04/23 03:42:35;;;;;;;8.73;7.82;;;11.80;92.10;;;;;;5054289;28;20111;-61
2022/04/23 03:45:02;;;;;;;8.60;7.13;;;11.90;92.10;;;;;;5054257;28;20036;-61
2022/04/23 03:47:28;;;;;;;10.00;7.97;;;11.80;92.10;;;;;;5054426;28;20025;-61
2022/04/23 03:49:54;;;;;;;9.98;7.30;;;11.80;92.10;;;;;;5054505;28;20091;-61
2022/04/23 03:52:20;;;;;;;9.20;7.65;;;11.80;92.10;;;;;;5054371;28;20094;-67
2022/04/23 03:54:47;;;;;;;9.23;7.55;;;11.80;92.10;;;;;;5054319;28;20040;-61
2022/04/23 03:57:12;;;;;;;8.48;7.57;;;11.80;92.10;;;;;;5054185;28;20021;-62
2022/04/23 03:59:38;;;;;;;10.13;8.02;;;11.80;92.20;;;;;;5053848;28;20021;-61
2022/04/23 04:02:06;;;;;;;10.80;7.82;;;11.70;92.20;;;;;;5053914;28;20053;-61
2022/04/23 04:04:33;;;;;;;8.55;7.25;;;11.80;92.30;;;;;;5054051;28;20481;-61
2022/04/23 04:07:02;;;;;;;9.20;7.65;;;11.70;92.30;;;;;;5053710;28;20056;-61
2022/04/23 04:09:29;;;;;;;8.55;7.75;;;11.70;92.40;;;;;;5054190;28;20052;-61
2022/04/23 04:12:01;;;;;;;11.20;7.90;;;11.70;92.40;;;;;;5054152;28;20513;-61
2022/04/23 04:14:31;;;;;;;12.80;10.13;;;11.80;92.50;;;;;;5053779;28;20115;-61
2022/04/23 04:16:59;;;;;;;12.38;11.07;;;11.70;92.50;;;;;;5053724;28;20025;-61
2022/04/23 04:19:30;;;;;;;11.82;10.55;;;11.80;92.50;;;;;;5053920;28;20047;-62
2022/04/23 04:21:57;;;;;;;9.80;8.57;;;11.70;92.40;;;;;;5053931;28;20029;-61
2022/04/23 04:24:23;;;;;;;8.38;6.90;;;11.80;92.50;;;;;;5053353;28;20500;-61
2022/04/23 04:26:50;;;;;;;8.38;7.10;;;11.80;92.50;;;;;;5053880;28;20033;-65
2022/04/23 04:29:16;;;;;;;9.18;6.53;;;11.70;92.50;;;;;;5053679;28;20112;-62
2022/04/23 04:31:51;;;;;;;15.70;6.72;;;11.70;92.40;;;;;;5053491;28;20088;-61
2022/04/23 04:34:23;;;;;;;8.60;7.15;;;11.70;92.40;;;;;;5053344;28;20446;-61
2022/04/23 04:36:50;;;;;;;7.30;6.60;;;11.70;92.40;;;;;;5053618;28;20017;-62
2022/04/23 04:39:16;;;;;;;8.80;7.22;;;11.70;92.30;;;;;;5053243;28;20500;-61
2022/04/23 04:41:42;;;;;;;10.35;7.20;;;11.80;92.40;;;;;;5053443;28;20485;-61
2022/04/23 04:44:08;;;;;;;12.00;7.32;;;11.70;92.30;;;;;;5052769;28;20029;-61
2022/04/23 04:46:35;;;;;;;11.48;7.05;;;11.70;92.40;;;;;;5053133;28;20025;-60
2022/04/23 04:49:03;;;;;;;7.43;6.45;;;11.80;92.40;;;;;;5053113;28;20085;-61
2022/04/23 04:51:30;;;;;;;9.45;6.90;;;11.80;92.30;;;;;;5053074;28;20081;-61
2022/04/23 04:53:56;;;;;;;8.95;7.05;;;11.80;92.30;;;;;;5053100;28;20427;-61
2022/04/23 04:56:22;;;;;;;8.88;7.78;;;11.80;92.30;;;;;;5053142;28;20025;-61
2022/04/23 04:58:48;;;;;;;9.00;6.75;;;11.80;92.30;;;;;;5053169;28;20458;-63
2022/04/23 05:01:15;;;;;;;8.45;7.53;;;11.80;92.30;;;;;;5052785;28;20056;-62
2022/04/23 05:03:40;;;;;;;8.60;7.65;;;11.80;92.30;;;;;;5052822;28;20473;-61
2022/04/23 05:06:07;;;;;;;7.97;7.18;;;11.80;92.30;;;;;;5052812;28;20098;-61
2022/04/23 05:08:36;;;;;;;7.80;6.47;;;11.80;92.40;;;;;;5052861;28;20029;-61
2022/04/23 05:11:03;;;;;;;7.43;6.32;;;11.80;92.50;;;;;;5052968;28;20029;-61
2022/04/23 05:13:29;;;;;;;7.28;6.00;;;11.80;92.50;;;;;;5052627;28;20037;-63
2022/04/23 05:15:54;;;;;;;11.98;7.68;;;11.80;92.60;;;;;;5052509;28;20108;-61
2022/04/23 05:18:20;;;;;;;9.10;7.57;;;11.80;92.60;;;;;;5051799;28;20159;-62
2022/04/23 05:20:46;;;;;;;8.85;7.80;;;11.80;92.60;;;;;;5052845;28;20057;-60
2022/04/23 05:23:12;;;;;;;9.50;7.68;;;11.80;92.70;;;;;;5052692;28;20389;-61
2022/04/23 05:25:38;;;;;;;7.72;6.80;;;11.80;92.70;;;;;;5052675;28;20351;-61
2022/04/23 05:28:04;;;;;;;8.90;7.40;;;11.90;93.00;;;;;;5052456;28;20090;-61
2022/04/23 05:30:30;;;;;;;10.43;7.07;;;11.90;92.80;;;;;;5052272;28;20071;-67
2022/04/23 05:32:55;;;;;;;8.48;7.05;;;11.80;92.80;;;;;;5052338;28;20040;-61
2022/04/23 05:35:21;;;;;;;11.20;7.03;;;11.80;92.90;;;;;;5051567;28;20021;-61
2022/04/23 05:37:46;;;;;;;10.13;6.60;;;11.90;93.00;;;;;;5052392;28;20428;-61
2022/04/23 05:40:12;;;;;;;8.27;6.90;;;11.80;93.00;;;;;;5051798;28;20492;-61
2022/04/23 05:42:38;;;;;;;9.07;7.28;;;11.90;93.10;;;;;;5052250;28;20111;-60
2022/04/23 05:45:04;;;;;;;7.88;6.95;;;12.00;93.20;;;;;;5051928;28;20081;-61
2022/04/23 05:47:30;;;;;;;9.05;6.72;;;12.00;93.20;;;;;;5052306;28;20139;-61
2022/04/23 05:49:56;;;;;;;14.82;7.28;;;12.00;93.30;;;;;;5052368;28;20494;-61
2022/04/23 05:52:22;;;;;;;10.70;7.50;;;12.00;93.30;;;;;;5052530;28;20108;-64
2022/04/23 05:54:48;;;;;;;8.55;7.10;;;12.10;93.30;;;;;;5051923;28;20037;-61
2022/04/23 05:57:14;;;;;;;10.50;7.22;;;12.10;93.30;;;;;;5051941;28;20029;-61
2022/04/23 05:59:40;;;;;;;7.53;6.32;;;12.10;93.30;;;;;;5052329;28;20029;-61
2022/04/23 06:02:07;;;;;;;8.60;6.85;;;12.20;93.40;;;;;;5051615;28;20397;-61
2022/04/23 06:04:33;;;;;;;10.18;7.30;;;12.20;93.50;;;;;;5051576;28;20087;-61
2022/04/23 06:06:58;;;;;;;9.52;6.65;;;12.20;93.70;;;;;;5051058;28;20037;-62
2022/04/23 06:09:24;;;;;;;10.88;6.45;;;12.30;93.80;;;;;;5051482;28;20025;-64
2022/04/23 06:11:50;;;;;;;10.07;6.07;;;12.30;93.80;;;;;;5051574;28;20049;-61
2022/04/23 06:14:15;;;;;;;8.57;5.32;;;12.40;93.80;;;;;;5050094;28;20123;-61
2022/04/23 06:16:41;;;;;;;6.22;5.43;;;12.40;93.90;;;;;;5048616;28;20044;-62
2022/04/23 06:19:07;;;;;;;6.93;5.45;;;12.40;94.10;;;;;;5047378;28;20032;-61
2022/04/23 06:21:32;;;;;;;9.93;5.88;;;12.40;94.20;;;;;;5050342;28;20036;-61
2022/04/23 06:23:58;;;;;;;9.98;5.30;;;12.40;94.10;;;;;;5051232;28;20025;-61
2022/04/23 06:26:24;;;;;;;7.57;5.22;;;12.50;94.00;;;;;;5051015;28;20462;-63
2022/04/23 06:28:50;;;;;;;7.93;4.65;;;12.50;93.90;;;;;;5050588;28;20398;-63
2022/04/23 06:31:16;;;;;;;7.88;5.43;;;12.50;93.80;;;;;;5052781;28;20104;-64
2022/04/23 06:33:42;;;;;;;6.88;5.20;;;12.50;93.70;;;;;;5055209;28;20519;-62
2022/04/23 06:36:10;;;;;;;8.38;4.32;;;12.50;93.70;;;;;;5055476;28;20059;-62
2022/04/23 06:38:37;;;;;;;8.38;4.50;;;12.50;93.70;;;;;;5055645;28;20389;-62
2022/04/23 06:41:03;;;;;;;10.35;4.47;;;12.50;93.60;;;;;;5055397;28;20409;-61
2022/04/23 06:43:28;;;;;;;6.70;4.63;;;12.50;93.60;;;;;;5055326;28;20497;-61
2022/04/23 06:45:54;;;;;;;11.45;4.63;;;12.50;93.70;;;;;;5055123;28;20032;-60
2022/04/23 06:48:20;;;;;;;8.32;4.75;;;12.60;93.70;;;;;;5055215;28;20029;-61
2022/04/23 06:50:45;;;;;;;7.32;5.03;;;12.50;93.70;;;;;;5055247;28;20029;-62
2022/04/23 06:53:11;;;;;;;5.97;4.95;;;12.60;93.80;;;;;;5054632;28;20040;-61
2022/04/23 06:55:36;;;;;;;5.95;4.88;;;12.60;93.90;;;;;;5055256;28;20024;-61
2022/04/23 06:58:02;;;;;;;7.03;4.60;;;12.60;93.90;;;;;;5055335;28;20025;-61
2022/04/23 07:00:28;;;;;;;8.25;5.70;;;12.60;94.00;;;;;;5055101;28;20055;-61
2022/04/23 07:02:54;;;;;;;7.57;5.10;;;12.60;94.00;;;;;;5055269;28;20060;-62
2022/04/23 07:05:20;;;;;;;7.60;5.50;;;12.60;93.90;;;;;;5054891;28;20466;-61
2022/04/23 07:08:03;;;;;;;6.30;5.20;;;12.70;93.90;;;;;;5055270;28;20028;-61
2022/04/23 07:10:30;;;;;;;6.38;4.65;;;12.70;93.80;;;;;;5055762;28;20059;-62
2022/04/23 07:12:57;;;;;;;8.27;4.93;;;12.70;93.80;;;;;;5055328;28;20032;-62
2022/04/23 07:15:25;;;;;;;6.93;4.93;;;12.70;93.70;;;;;;5055318;28;20033;-61
2022/04/23 07:17:51;;;;;;;6.60;5.18;;;12.70;93.70;;;;;;5055356;28;20373;-61
2022/04/23 07:20:18;;;;;;;8.02;4.93;;;12.70;93.70;;;;;;5055239;28;20029;-61
2022/04/23 07:25:33;;;;;;;7.05;5.00;;;12.80;93.70;;;;;;5055301;28;20040;-61
2022/04/23 07:27:59;;;;;;;7.75;4.68;;;12.80;93.60;;;;;;5055228;28;20020;-61
2022/04/23 07:30:29;;;;;;;7.68;4.63;;;12.80;93.40;;;;;;5054919;28;20481;-61
2022/04/23 07:32:55;;;;;;;16.65;5.57;;;12.80;93.20;;;;;;5054933;28;20040;-62
2022/04/23 07:38:11;;;;;;;7.07;5.63;;;12.90;92.80;;;;;;5054911;28;20094;-61
2022/04/23 07:40:40;;;;;;;8.30;5.90;;;13.00;92.40;;;;;;5054131;28;20036;-61
2022/04/23 07:43:10;;;;;;;7.40;5.35;;;13.00;92.30;;;;;;5054824;28;20033;-62
2022/04/23 07:45:37;;;;;;;9.82;5.40;;;13.00;92.10;;;;;;5054625;28;20025;-60
2022/04/23 07:48:04;;;;;;;7.03;4.18;;;13.10;91.90;;;;;;5054270;28;20036;-62
2022/04/23 07:50:31;;;;;;;9.77;4.07;;;13.10;91.80;;;;;;5054032;28;20429;-62
2022/04/23 07:52:57;;;;;;;6.05;3.95;;;13.20;91.80;;;;;;5054504;28;20060;-61
2022/04/23 07:55:23;;;;;;;5.93;4.18;;;13.20;91.70;;;;;;5054605;28;20033;-61
2022/04/23 07:57:49;;;;;;;6.07;4.28;;;13.30;91.50;;;;;;5054402;28;20029;-61
2022/04/23 08:00:15;;;;;;;8.63;3.92;;;13.40;91.80;;;;;;5053973;28;20072;-63
2022/04/23 08:02:40;;;;;;;9.88;4.70;;;13.40;91.60;;;;;;5054405;28;20083;-61
2022/04/23 08:05:09;;;;;;;7.03;4.20;;;13.40;91.50;;;;;;5053958;28;20029;-61
2022/04/23 08:07:35;;;;;;;7.72;4.80;;;13.50;91.30;;;;;;5054032;28;20105;-60
2022/04/23 08:10:02;;;;;;;8.07;5.00;;;13.50;91.30;;;;;;5054039;28;20082;-61
2022/04/23 08:12:28;;;;;;;5.95;4.15;;;13.60;91.50;;;;;;5053797;28;20070;-61
2022/04/23 08:14:54;;;;;;;10.60;4.30;;;13.60;91.40;;;;;;5054071;28;20513;-61
2022/04/23 08:17:20;;;;;;;8.15;4.45;;;13.70;91.50;;;;;;5053942;28;20025;-61
2022/04/23 08:19:45;;;;;;;11.82;4.45;;;13.70;91.20;;;;;;5053889;28;20029;-62
2022/04/23 08:22:11;;;;;;;5.30;3.15;;;13.80;91.10;;;;;;5054249;28;20026;-62
2022/04/23 08:24:38;;;;;;;6.53;3.63;;;13.80;90.90;;;;;;5054110;28;20040;-61
2022/04/23 08:27:03;;;;;;;5.45;3.20;;;13.90;90.90;;;;;;5053875;28;20394;-61
2022/04/23 08:32:13;;;;;;;6.93;3.38;;;14.00;90.70;;;;;;5053751;28;20113;-62
2022/04/23 08:34:39;;;;;;;3.83;2.88;;;14.00;90.60;;;;;;5053885;28;20119;-67
2022/04/23 08:37:05;;;;;;;7.13;2.85;;;14.10;90.30;;;;;;5053831;28;20025;-63
2022/04/23 08:39:30;;;;;;;10.43;3.08;;;14.10;90.40;;;;;;5053328;28;20021;-62
2022/04/23 08:41:56;;;;;;;3.53;2.17;;;14.10;90.10;;;;;;5053845;28;20060;-62
2022/04/23 08:44:22;;;;;;;5.95;2.42;;;14.10;89.60;;;;;;5054066;28;20037;-62
2022/04/23 08:46:50;;;;;;;8.05;2.40;;;14.20;89.20;;;;;;5054035;28;21091;-62
2022/04/23 08:49:17;;;;;;;3.22;2.55;;;14.20;88.30;;;;;;5053747;28;20027;-63
2022/04/23 08:51:53;;;;;;;9.75;3.67;;;14.20;88.80;;;;;;5053665;28;20029;-63
2022/04/23 08:54:22;;;;;;;4.63;2.92;;;14.30;88.40;;;;;;5053291;28;20045;-62
2022/04/23 08:56:48;;;;;;;6.60;3.80;;;14.30;88.20;;;;;;5053585;28;20527;-62
2022/04/23 08:59:17;;;;;;;4.95;3.50;;;14.30;88.10;;;;;;5053270;28;20024;-63
2022/04/23 09:01:44;;;;;;;8.65;3.92;;;14.30;88.40;;;;;;5053280;28;20049;-62
2022/04/23 09:04:11;;;;;;;4.75;3.50;;;14.30;88.60;;;;;;5051854;28;20390;-63
2022/04/23 09:06:45;;;;;;;7.18;3.20;;;14.40;88.70;;;;;;5052867;28;20346;-63
2022/04/23 09:09:14;;;;;;;4.07;3.03;;;14.40;89.00;;;;;;5053338;28;20028;-62
2022/04/23 09:11:45;;;;;;;5.28;3.88;;;14.40;89.10;;;;;;5053239;28;20064;-63
2022/04/23 09:14:32;;;;;;;6.82;3.67;;;14.30;89.50;;;;;;5053238;28;20064;-63
2022/04/23 09:25:37;;;;;;;7.85;3.65;;;14.40;88.30;;;;;;5053143;28;20039;-62
2022/04/23 09:28:23;;;;;;;7.13;3.10;;;14.40;87.70;;;;;;5052762;28;20362;-62
2022/04/23 09:30:56;;;;;;;4.20;3.00;;;14.40;87.80;;;;;;5053083;28;20468;-62
2022/04/23 09:33:41;;;;;;;6.18;3.22;;;14.40;87.90;;;;;;5052704;28;20039;-63
2022/04/23 09:36:07;;;;;;;5.50;3.08;;;14.40;88.30;;;;;;5052478;28;20037;-62
2022/04/23 09:38:33;;;;;;;4.63;3.20;;;14.50;88.90;;;;;;5052701;28;20036;-62
2022/04/23 09:41:15;;;;;;;4.95;3.38;;;14.50;89.10;;;;;;5052550;28;20485;-62
2022/04/23 09:43:48;;;;;;;8.13;4.13;;;14.60;88.60;;;;;;5052738;28;20100;-62
2022/04/23 09:46:14;;;;;;;5.50;3.40;;;14.50;88.10;;;;;;5052768;28;20033;-63
2022/04/23 09:48:43;;;;;;;5.13;3.53;;;14.50;88.20;;;;;;5052637;28;20373;-63
2022/04/23 09:51:26;;;;;;;5.13;3.50;;;14.50;88.40;;;;;;5052362;28;20412;-63
2022/04/23 09:53:53;;;;;;;5.32;4.00;;;14.50;88.90;;;;;;5051246;28;20032;-63
2022/04/23 09:56:24;;;;;;;6.07;3.05;;;14.40;88.40;;;;;;5050534;28;20546;-63
2022/04/23 09:58:51;;;;;;;6.25;3.80;;;14.50;89.70;;;;;;5051631;28;20531;-64
2022/04/23 10:01:19;;;;;;;5.45;3.80;;;14.50;89.20;;;;;;5050693;28;20685;-63
2022/04/23 10:03:49;;;;;;;7.65;4.18;;;14.50;89.80;;;;;;5051144;28;20056;-63
2022/04/23 10:06:20;;;;;;;7.35;3.50;;;14.50;90.40;;;;;;5054299;28;20079;-70
2022/04/23 10:08:51;;;;;;;4.90;3.25;;;14.60;90.70;;;;;;5053822;28;20036;-67
2022/04/23 10:11:24;;;;;;;6.82;4.40;;;14.60;90.60;;;;;;5054183;28;20116;-63
2022/04/23 10:13:56;;;;;;;14.65;4.15;;;14.70;90.30;;;;;;5055059;28;20393;-71
2022/04/23 10:16:23;;;;;;;6.43;4.20;;;14.80;90.10;;;;;;5054720;28;20108;-62
2022/04/23 10:18:49;;;;;;;9.40;4.35;;;14.80;90.20;;;;;;5053782;28;20393;-65
2022/04/23 10:21:24;;;;;;;6.75;4.43;;;14.90;90.40;;;;;;5054151;28;20025;-65
2022/04/23 10:23:58;;;;;;;6.35;4.22;;;15.00;90.20;;;;;;5054995;28;20088;-70
2022/04/23 10:26:46;;;;;;;9.40;3.80;;;15.10;90.20;;;;;;5054535;28;20108;-63
2022/04/23 10:29:14;;;;;;;6.05;2.88;;;15.10;90.10;;;;;;5054145;28;20044;-63
2022/04/23 10:31:41;;;;;;;5.93;3.22;;;15.20;89.90;;;;;;5054994;28;20171;-62
2022/04/23 10:34:32;;;;;;;4.57;3.05;;;15.30;89.30;;;;;;5054868;28;20040;-62
2022/04/23 10:37:27;;;;;;;7.40;3.30;;;15.40;88.10;;;;;;5054167;28;20024;-62
2022/04/23 10:39:53;;;;;;;5.13;2.88;;;15.40;86.70;;;;;;5054423;28;20033;-63
2022/04/23 10:42:23;;;;;;;5.90;2.78;;;15.50;87.20;;;;;;5054656;28;20032;-63
2022/04/23 10:44:50;;;;;;;10.13;3.65;;;15.60;87.00;;;;;;5054659;28;20385;-63
2022/04/23 10:47:30;;;;;;;6.63;3.20;;;15.60;87.30;;;;;;5055690;28;20416;-63
2022/04/23 10:52:43;;;;;;;5.50;2.40;;;15.60;86.80;;;;;;5054143;28;20033;-63
2022/04/23 10:55:10;;;;;;;6.25;2.40;;;15.70;86.50;;;;;;5054565;28;20116;-63
2022/04/23 10:57:38;;;;;;;4.57;2.20;;;15.70;86.00;;;;;;5054663;28;20477;-63
2022/04/23 11:00:18;;;;;;;4.35;2.28;;;15.80;85.90;;;;;;5054571;28;20103;-63
2022/04/23 11:02:48;;;;;;;8.20;2.85;;;15.90;86.10;;;;;;5054655;28;20111;-65
2022/04/23 11:13:58;;;;;;;6.22;2.40;;;16.00;84.90;;;;;;5055244;28;20040;-62
2022/04/23 11:16:25;;;;;;;3.00;2.25;;;16.10;84.70;;;;;;5053516;28;20071;-63
2022/04/23 11:18:55;;;;;;;6.53;2.40;;;16.10;84.70;;;;;;5054994;28;20057;-63
2022/04/23 11:21:23;;;;;;;4.07;2.00;;;16.20;85.20;;;;;;5055029;28;20032;-68
2022/04/23 11:23:51;;;;;;;5.40;2.35;;;16.20;84.20;;;;;;5055263;28;20087;-62
2022/04/23 11:26:18;;;;;;;7.43;2.22;;;16.30;83.60;;;;;;5054421;28;20036;-64
2022/04/23 11:28:46;;;;;;;3.75;1.60;;;16.30;84.00;;;;;;5053675;28;20037;-62
2022/04/23 11:31:12;;;;;;;4.82;2.03;;;16.30;83.70;;;;;;5052219;28;20083;-63
2022/04/23 11:33:52;;;;;;;2.15;1.95;;;16.30;83.40;;;;;;5052330;28;20041;-63
2022/04/23 11:36:19;;;;;;;3.50;2.38;;;16.30;84.00;;;;;;5054118;28;20477;-63
2022/04/23 11:38:45;;;;;;;4.35;1.80;;;16.30;84.20;;;;;;5054777;28;20448;-62
2022/04/23 11:41:10;;;;;;;3.05;1.70;;;16.20;83.40;;;;;;5054878;28;20378;-63
2022/04/23 11:43:38;;;;;;;3.72;1.70;;;16.20;83.00;;;;;;5054583;28;20025;-62
2022/04/23 11:46:07;;;;;;;3.20;1.70;;;16.10;82.80;;;;;;5054794;28;20385;-62
2022/04/23 11:48:45;;;;;;;2.80;1.77;;;16.10;83.40;;;;;;5054606;28;20033;-62
2022/04/23 11:51:13;;;;;;;3.58;2.17;;;16.10;83.50;;;;;;5054328;28;20021;-62
2022/04/23 11:53:58;;;;;;;4.18;1.80;;;16.10;82.90;;;;;;5054540;28;20053;-62
2022/04/23 11:56:32;;;;;;;2.55;1.75;;;16.10;82.60;;;;;;5054487;28;20420;-62
2022/04/23 11:59:04;;;;;;;3.53;1.90;;;16.00;82.70;;;;;;5054266;28;20131;-63
2022/04/23 12:01:30;;;;;;;5.47;2.30;;;16.00;82.90;;;;;;5054399;28;20068;-62
2022/04/23 12:03:58;;;;;;;4.28;1.98;;;16.00;82.90;;;;;;5054271;28;20060;-62
2022/04/23 12:06:25;;;;;;;4.40;2.63;;;16.00;83.00;;;;;;5054215;28;20047;-62
2022/04/23 12:08:51;;;;;;;4.35;1.67;;;15.90;82.60;;;;;;5054192;28;20025;-62
2022/04/23 12:11:27;;;;;;;4.18;1.80;;;15.90;82.50;;;;;;5053583;28;20021;-62
2022/04/23 12:13:53;;;;;;;5.07;2.00;;;15.90;82.60;;;;;;5052127;28;20119;-63
2022/04/23 12:16:41;;;;;;;3.25;1.60;;;15.90;83.00;;;;;;5052867;28;20124;-62
2022/04/23 12:19:11;;;;;;;2.10;1.55;;;15.90;83.20;;;;;;5054121;28;20071;-62
2022/04/23 12:21:37;;;;;;;3.08;1.70;;;15.90;83.30;;;;;;5052200;28;20091;-70
2022/04/23 12:24:04;;;;;;;3.42;1.15;;;15.80;82.70;;;;;;5052703;28;20025;-63
2022/04/23 12:26:32;;;;;;;2.70;1.20;;;15.80;81.70;;;;;;5053253;28;20025;-70
2022/04/23 12:42:25;;;;;;;6.85;2.30;;;15.70;83.40;;;;;;5053961;28;20035;-63
2022/04/23 12:44:53;;;;;;;5.72;2.35;;;15.60;84.70;;;;;;5053282;28;20104;-63
2022/04/23 12:47:29;;;;;;;6.38;3.05;;;15.60;84.80;;;;;;5052794;28;20492;-63
2022/04/23 12:50:02;;;;;;;3.63;2.50;;;15.60;84.90;;;;;;5050703;28;20473;-63
2022/04/23 12:52:36;;;;;;;4.25;2.83;;;15.60;85.30;;;;;;5050909;28;20474;-63
2022/04/23 12:55:22;;;;;;;3.72;2.55;;;15.60;85.40;;;;;;5053324;28;20029;-63
2022/04/23 12:57:48;;;;;;;6.50;2.20;;;15.60;85.60;;;;;;5053118;28;20434;-64
2022/04/23 13:00:19;;;;;;;4.95;2.30;;;15.50;85.30;;;;;;5053147;28;20032;-64
2022/04/23 13:02:49;;;;;;;2.65;1.70;;;15.50;84.90;;;;;;5051554;28;20025;-64
2022/04/23 13:05:15;;;;;;;3.25;1.70;;;15.50;85.00;;;;;;5050302;28;20036;-63
2022/04/23 13:10:25;;;;;;;3.03;2.08;;;15.50;84.40;;;;;;5053479;28;20044;-64
2022/04/23 13:12:51;;;;;;;2.45;1.60;;;15.60;84.40;;;;;;5052718;28;20031;-64
2022/04/23 13:15:17;;;;;;;1.98;1.30;;;15.60;84.40;;;;;;5052948;28;20104;-64
2022/04/23 13:17:44;;;;;;;2.45;1.40;;;15.70;83.80;;;;;;5052989;28;20458;-64
2022/04/23 13:20:11;;;;;;;3.42;1.70;;;15.70;83.40;;;;;;5053295;28;20025;-64
2022/04/23 13:22:37;;;;;;;1.50;1.20;;;15.80;84.30;;;;;;5053063;28;20469;-64
2022/04/23 13:25:05;;;;;;;4.25;1.33;;;15.90;83.90;;;;;;5053019;28;20477;-64
2022/04/23 13:27:31;;;;;;;1.67;1.13;;;15.90;83.70;;;;;;5053005;28;20031;-64
2022/04/23 13:29:57;;;;;;;1.75;1.35;;;16.00;83.30;;;;;;5052772;28;20457;-67
2022/04/23 13:32:23;;;;;;;2.85;1.40;;;16.00;83.30;;;;;;5052350;28;20025;-71
2022/04/23 13:34:49;;;;;;;3.17;1.40;;;16.00;83.10;;;;;;5052594;28;20186;-64